Terminal Aerodrome Forecast
Issued by NWS

Home | Current Version | Previous Version | Text Only | Print | Product List | Glossary On
Versions: 1 2 3 4 5 6 7 8 9 10 11 12 13 14 15 16 17 18 19
451
FTUS42 KTBW 061720
TAFRSW
TAF
KRSW 061720Z 0618/0718 05007KT P6SM VCSH SCT030 BKN040
     FM062100 35009KT P6SM VCSH SCT015 BKN025
     FM070200 33010KT P6SM VCSH SCT010 BKN015
     FM071100 34010G17KT P6SM FEW015 BKN100=

USA.gov is the U.S. government's official web portal to all federal, state and local government web resources and services.